To NAV CANADA Home Page Login to a new session Search on AWWS site Feedback and Comments Disclaimer Vers la page française équivalente Tips FAQ What's new on the site To the Forecasts and Observations / NOTAM section To "File a Flight Plan" website Publications and other links Update of the User's profile FIC Telephone Numbers My Weather Data Folder Route Weather Data Regional Weather Data Local Weather Data To the Forecasts and Observations / NOTAM section
Request Generated 01/21/2017 at 02:07:33 UTC . Weather information available at that time is displayed.

METAR/TAF

SWIFT CURRENT/SK    (show WxCam)

METAR CYYN 210200Z AUTO 28009KT 9SM OVC140 01/M03 A2930 RMK SLP948=
METAR CYYN 210100Z AUTO 26010KT 9SM BKN130 OVC150 02/M02 A2930 RMK
SLP945=
METAR CYYN 210000Z AUTO 27009KT 9SM OVC140 03/M03 A2929 RMK SLP942=

TAF CYYN 202342Z 2100/2112 27008KT P6SM OVC140
BECMG 2110/2112 2SM BR OVC006
RMK FCST BASED ON AUTO OBS. NXT FCST BY 210600Z=
Your time UTC time
Weather data provided by Environment Canada and NAV CANADA